createdAt,value
2022-08-28T00:00:36.555Z,11.55
2022-08-28T00:03:04.171Z,12.45
2022-08-28T00:05:33.249Z,11.38
2022-08-28T00:08:00.592Z,11.85
2022-08-28T00:10:30.824Z,10.15
2022-08-28T00:12:58.170Z,13.07
2022-08-28T00:15:34.634Z,11.82
2022-08-28T00:18:03.736Z,11.93
2022-08-28T00:20:31.295Z,12.48
2022-08-28T00:23:00.324Z,12.55
2022-08-28T00:25:28.876Z,11.82
2022-08-28T00:27:58.402Z,11.50
2022-08-28T00:30:31.005Z,10.75
2022-08-28T00:33:07.166Z,12.35
2022-08-28T00:35:34.564Z,12.13
2022-08-28T00:38:01.469Z,10.57
2022-08-28T00:40:33.148Z,10.13
2022-08-28T00:43:03.644Z,9.82
2022-08-28T00:45:31.039Z,10.18
2022-08-28T00:47:58.508Z,8.98
2022-08-28T00:50:29.673Z,10.13
2022-08-28T00:53:00.832Z,9.30
2022-08-28T00:55:28.970Z,9.32
2022-08-28T00:57:59.059Z,8.75
2022-08-28T01:00:33.826Z,9.48
2022-08-28T01:03:01.490Z,8.07
2022-08-28T01:05:28.944Z,8.95
2022-08-28T01:07:58.692Z,8.77
2022-08-28T01:10:28.067Z,8.90
2022-08-28T01:12:56.944Z,8.18
2022-08-28T01:15:31.687Z,9.38
2022-08-28T01:18:07.839Z,9.13
2022-08-28T01:20:37.972Z,9.32
2022-08-28T01:23:40.822Z,8.13
2022-08-28T01:26:11.635Z,8.60
2022-08-28T01:28:39.681Z,9.75
2022-08-28T01:31:10.280Z,9.52
2022-08-28T01:33:37.704Z,9.38
2022-08-28T01:36:10.413Z,8.75
2022-08-28T01:38:38.336Z,9.52
2022-08-28T01:41:05.111Z,9.60
2022-08-28T01:43:31.732Z,10.55
2022-08-28T01:46:04.010Z,9.50
2022-08-28T01:48:33.868Z,9.70
2022-08-28T01:51:00.404Z,11.27
2022-08-28T01:53:32.578Z,11.63
2022-08-28T01:56:01.641Z,12.27
2022-08-28T01:58:30.226Z,12.77
2022-08-28T02:00:57.469Z,13.02
2022-08-28T02:03:24.517Z,11.40
2022-08-28T02:05:51.329Z,12.25
2022-08-28T02:08:18.266Z,11.80
2022-08-28T02:10:46.781Z,12.35
2022-08-28T02:13:13.775Z,13.20
2022-08-28T02:15:42.351Z,12.20
2022-08-28T02:18:10.411Z,10.55
2022-08-28T02:20:37.112Z,11.25
2022-08-28T02:23:04.334Z,11.65
2022-08-28T02:25:30.888Z,12.02
2022-08-28T02:27:57.715Z,9.32
2022-08-28T02:30:24.563Z,10.90
2022-08-28T02:32:51.283Z,11.65
2022-08-28T02:35:19.623Z,11.57
2022-08-28T02:37:47.679Z,14.00
2022-08-28T02:40:17.468Z,12.18
2022-08-28T02:42:44.480Z,11.65
2022-08-28T02:45:13.231Z,10.75
2022-08-28T02:47:42.367Z,12.07
2022-08-28T02:50:10.461Z,11.35
2022-08-28T02:52:37.683Z,12.02
2022-08-28T02:55:06.015Z,11.80
2022-08-28T02:57:33.069Z,11.20
2022-08-28T02:59:59.872Z,11.25
2022-08-28T03:02:26.828Z,11.10
2022-08-28T03:04:54.447Z,12.63
2022-08-28T03:07:22.691Z,11.05
2022-08-28T03:09:50.290Z,11.85
2022-08-28T03:12:17.131Z,10.38
2022-08-28T03:14:44.201Z,12.43
2022-08-28T03:17:10.696Z,11.55
2022-08-28T03:19:37.353Z,11.93
2022-08-28T03:22:04.003Z,10.68
2022-08-28T03:24:30.572Z,11.88
2022-08-28T03:26:57.166Z,10.98
2022-08-28T03:29:23.840Z,10.15
2022-08-28T03:31:50.503Z,11.27
2022-08-28T03:34:17.130Z,11.70
2022-08-28T03:36:44.049Z,9.45
2022-08-28T03:39:10.768Z,10.73
2022-08-28T03:41:37.267Z,9.63
2022-08-28T03:44:03.980Z,11.68
2022-08-28T03:46:32.952Z,10.50
2022-08-28T03:49:01.290Z,10.48
2022-08-28T03:51:30.945Z,11.50
2022-08-28T03:53:59.379Z,12.27
2022-08-28T03:56:28.241Z,11.00
2022-08-28T03:58:58.210Z,11.48
2022-08-28T04:01:25.287Z,10.82
2022-08-28T04:03:51.959Z,10.48
2022-08-28T04:06:19.760Z,11.45
2022-08-28T04:08:47.177Z,11.15
2022-08-28T04:11:13.715Z,10.98
2022-08-28T04:13:41.686Z,11.48
2022-08-28T04:16:11.553Z,11.73
2022-08-28T04:18:41.351Z,11.00
2022-08-28T04:21:11.035Z,11.10
2022-08-28T04:23:43.124Z,11.43
2022-08-28T04:26:11.678Z,10.57
2022-08-28T04:28:38.265Z,10.13
2022-08-28T04:31:05.279Z,10.40
2022-08-28T04:33:32.500Z,10.93
2022-08-28T04:36:06.655Z,9.80
2022-08-28T04:38:34.032Z,10.30
2022-08-28T04:41:06.941Z,9.68
2022-08-28T04:43:33.847Z,11.10
2022-08-28T04:46:04.827Z,9.52
2022-08-28T04:48:31.401Z,9.93
2022-08-28T04:50:58.269Z,9.48
2022-08-28T04:53:24.791Z,9.63
2022-08-28T04:55:54.271Z,10.73
2022-08-28T04:58:24.108Z,10.77
2022-08-28T05:00:52.321Z,9.32
2022-08-28T05:03:19.108Z,9.25
2022-08-28T05:05:50.659Z,9.43
2022-08-28T05:08:19.342Z,9.60
2022-08-28T05:10:48.936Z,9.00
2022-08-28T05:13:16.423Z,9.50
2022-08-28T05:15:45.219Z,10.18
2022-08-28T05:18:16.078Z,9.27
2022-08-28T05:20:45.061Z,10.20
2022-08-28T05:23:13.295Z,10.57
2022-08-28T05:25:42.801Z,8.90
2022-08-28T05:28:12.298Z,10.88
2022-08-28T05:30:40.995Z,9.82
2022-08-28T05:33:09.037Z,9.60
2022-08-28T05:35:38.592Z,8.82
2022-08-28T05:38:06.435Z,10.48
2022-08-28T05:40:34.401Z,9.77
2022-08-28T05:43:00.953Z,9.40
2022-08-28T05:45:27.500Z,8.60
2022-08-28T05:47:54.104Z,9.57
2022-08-28T05:50:20.634Z,8.35
2022-08-28T05:52:47.481Z,8.93
2022-08-28T05:55:14.116Z,9.35
2022-08-28T05:57:41.396Z,9.27
2022-08-28T06:00:13.572Z,8.00
2022-08-28T06:02:42.014Z,9.27
2022-08-28T06:05:09.579Z,9.05
2022-08-28T06:07:40.941Z,9.50
2022-08-28T06:10:10.636Z,9.68
2022-08-28T06:12:37.842Z,9.23
2022-08-28T06:15:05.594Z,9.73
2022-08-28T06:17:32.166Z,9.10
2022-08-28T06:19:58.670Z,8.75
2022-08-28T06:22:25.715Z,8.98
2022-08-28T06:24:52.253Z,9.40
2022-08-28T06:27:18.847Z,9.15
2022-08-28T06:29:45.802Z,9.50
2022-08-28T06:32:12.351Z,8.95
2022-08-28T06:34:39.361Z,9.85
2022-08-28T06:37:05.996Z,9.80
2022-08-28T06:39:32.561Z,9.70
2022-08-28T06:41:59.107Z,8.98
2022-08-28T06:44:26.221Z,9.23
2022-08-28T06:46:54.556Z,9.05
2022-08-28T06:49:22.028Z,8.80
2022-08-28T06:51:48.738Z,8.75
2022-08-28T06:54:21.806Z,8.88
2022-08-28T06:56:50.032Z,8.70
2022-08-28T06:59:16.545Z,9.05
2022-08-28T07:01:43.120Z,8.73
2022-08-28T07:04:11.911Z,9.13
2022-08-28T07:06:41.186Z,9.38
2022-08-28T07:09:11.307Z,8.77
2022-08-28T07:11:38.902Z,9.63
2022-08-28T07:14:06.100Z,8.07
2022-08-28T07:16:38.217Z,8.68
2022-08-28T07:19:10.605Z,9.07
2022-08-28T07:21:39.439Z,8.85
2022-08-28T07:24:07.742Z,8.10
2022-08-28T07:26:35.787Z,8.98
2022-08-28T07:29:10.503Z,8.32
2022-08-28T07:31:43.927Z,8.18
2022-08-28T07:34:12.148Z,8.27
2022-08-28T07:36:39.493Z,7.50
2022-08-28T07:39:06.931Z,7.75
2022-08-28T07:41:36.305Z,8.55
2022-08-28T07:44:21.878Z,8.35
2022-08-28T07:46:48.406Z,7.83
2022-08-28T07:49:18.337Z,7.57
2022-08-28T07:51:46.746Z,9.27
2022-08-28T07:54:18.259Z,8.43
2022-08-28T07:56:45.915Z,7.68
2022-08-28T07:59:16.694Z,8.95
2022-08-28T08:01:46.468Z,8.40
2022-08-28T08:04:15.932Z,7.88
2022-08-28T08:06:43.520Z,7.95
2022-08-28T08:09:14.063Z,7.55
2022-08-28T08:11:40.878Z,8.10
2022-08-28T08:14:07.446Z,8.50
2022-08-28T08:16:38.662Z,8.13
2022-08-28T08:19:06.280Z,7.95
2022-08-28T08:21:32.898Z,8.32
2022-08-28T08:23:59.509Z,9.40
2022-08-28T08:26:28.285Z,7.93
2022-08-28T08:28:56.619Z,7.18
2022-08-28T08:31:26.740Z,7.32
2022-08-28T08:33:57.248Z,7.63
2022-08-28T08:36:25.792Z,7.75
2022-08-28T08:38:59.085Z,7.95
2022-08-28T08:41:35.498Z,7.82
2022-08-28T08:44:34.644Z,8.05
2022-08-28T08:47:15.361Z,8.23
2022-08-28T08:50:09.126Z,8.32
2022-08-28T08:52:54.248Z,7.63
2022-08-28T08:55:31.951Z,8.48
2022-08-28T08:58:22.748Z,7.75
2022-08-28T09:01:04.405Z,13.35
2022-08-28T09:03:47.441Z,10.70
2022-08-28T09:06:32.831Z,8.90
2022-08-28T09:09:05.093Z,8.02
2022-08-28T09:11:56.418Z,7.75
2022-08-28T09:14:37.077Z,8.05
2022-08-28T09:17:06.690Z,8.27
2022-08-28T09:19:33.291Z,7.85
2022-08-28T09:22:00.298Z,8.00
2022-08-28T09:24:33.200Z,9.50
2022-08-28T09:27:14.179Z,8.55
2022-08-28T09:29:47.352Z,8.23
2022-08-28T09:32:30.263Z,8.18
2022-08-28T09:35:06.219Z,7.55
2022-08-28T09:37:34.556Z,6.82
2022-08-28T09:40:22.213Z,6.80
2022-08-28T09:43:24.408Z,6.90
2022-08-28T09:45:58.276Z,6.88
2022-08-28T09:48:37.586Z,6.03
2022-08-28T09:51:13.410Z,6.80
2022-08-28T09:56:33.557Z,5.45
2022-08-28T09:59:05.769Z,5.20
2022-08-28T10:01:39.001Z,6.13
2022-08-28T10:04:18.118Z,6.80
2022-08-28T10:07:03.989Z,5.85
2022-08-28T10:09:33.263Z,6.20
2022-08-28T10:12:11.193Z,6.28
2022-08-28T10:14:49.215Z,5.05
2022-08-28T10:17:21.615Z,5.68
2022-08-28T10:20:10.005Z,5.57
2022-08-28T10:22:49.966Z,5.20
2022-08-28T10:25:35.036Z,6.22
2022-08-28T10:31:31.585Z,5.20
2022-08-28T10:34:35.611Z,4.93
2022-08-28T10:37:24.040Z,5.45
2022-08-28T10:40:16.936Z,5.28
2022-08-28T10:42:49.856Z,5.68
2022-08-28T10:45:22.799Z,5.47
2022-08-28T10:47:54.525Z,5.45
2022-08-28T10:50:29.446Z,5.00
2022-08-28T10:53:03.078Z,5.40
2022-08-28T10:55:37.549Z,4.63
2022-08-28T10:58:24.910Z,5.07
2022-08-28T11:01:01.063Z,4.38
2022-08-28T11:06:28.992Z,4.50
2022-08-28T11:08:59.033Z,5.10
2022-08-28T11:11:42.513Z,4.43
2022-08-28T11:14:10.573Z,4.43
2022-08-28T11:16:43.182Z,4.50
2022-08-28T11:19:26.158Z,4.47
2022-08-28T11:22:00.363Z,4.43
2022-08-28T11:24:33.794Z,4.93
2022-08-28T11:27:18.726Z,4.57
2022-08-28T11:30:03.914Z,3.67
2022-08-28T11:32:41.467Z,4.60
2022-08-28T11:35:32.233Z,4.88
2022-08-28T11:37:58.779Z,4.30
2022-08-28T11:40:28.331Z,4.50
2022-08-28T11:43:16.553Z,4.10
2022-08-28T11:45:46.874Z,4.22
2022-08-28T11:48:23.363Z,4.05
2022-08-28T11:50:57.512Z,4.20
2022-08-28T11:53:36.182Z,3.40
2022-08-28T11:56:21.780Z,3.67
2022-08-28T11:59:10.179Z,4.53
2022-08-28T12:01:37.418Z,4.07
2022-08-28T12:04:08.643Z,3.97
2022-08-28T12:07:09.136Z,4.18
2022-08-28T12:09:38.673Z,4.07
2022-08-28T12:12:20.413Z,4.30
2022-08-28T12:14:46.879Z,3.90
2022-08-28T12:17:22.704Z,3.35
2022-08-28T12:19:56.382Z,3.70
2022-08-28T12:22:43.934Z,3.72
2022-08-28T12:25:22.568Z,4.00
2022-08-28T12:27:49.562Z,3.78
2022-08-28T12:30:31.273Z,3.47
2022-08-28T12:33:13.934Z,3.75
2022-08-28T12:35:43.723Z,3.75
2022-08-28T12:38:19.184Z,3.55
2022-08-28T12:40:50.991Z,3.33
2022-08-28T12:43:28.697Z,4.10
2022-08-28T12:46:00.660Z,3.95
2022-08-28T12:48:33.686Z,4.07
2022-08-28T12:51:04.888Z,3.58
2022-08-28T12:53:46.125Z,3.38
2022-08-28T12:56:17.055Z,3.53
2022-08-28T12:58:44.997Z,3.63
2022-08-28T13:01:32.836Z,3.28
2022-08-28T13:04:03.278Z,3.58
2022-08-28T13:06:36.437Z,3.65
2022-08-28T13:09:16.215Z,3.35
2022-08-28T13:11:51.373Z,3.47
2022-08-28T13:14:45.774Z,3.20
2022-08-28T13:17:15.484Z,3.58
2022-08-28T13:19:42.560Z,3.10
2022-08-28T13:22:33.549Z,3.60
2022-08-28T13:25:01.777Z,3.80
2022-08-28T13:27:28.702Z,3.38
2022-08-28T13:30:01.519Z,3.50
2022-08-28T13:32:30.534Z,3.25
2022-08-28T13:35:06.101Z,3.50
2022-08-28T13:40:38.192Z,2.78
2022-08-28T13:43:07.230Z,3.15
2022-08-28T13:45:42.641Z,3.53
2022-08-28T13:48:16.282Z,3.58
2022-08-28T13:50:46.669Z,3.10
2022-08-28T13:53:15.141Z,3.10
2022-08-28T13:55:41.682Z,3.42
2022-08-28T13:58:08.234Z,4.00
2022-08-28T14:00:39.671Z,3.28
2022-08-28T14:03:25.126Z,3.33
2022-08-28T14:05:51.632Z,3.75
2022-08-28T14:08:18.152Z,3.50
2022-08-28T14:10:44.667Z,3.67
2022-08-28T14:13:11.190Z,3.35
2022-08-28T14:15:38.367Z,3.58
2022-08-28T14:18:05.492Z,3.88
2022-08-28T14:20:32.589Z,3.40
2022-08-28T14:22:59.083Z,3.40
2022-08-28T14:25:25.642Z,3.15
2022-08-28T14:27:52.201Z,3.80
2022-08-28T14:30:19.845Z,3.70
2022-08-28T14:32:46.472Z,3.55
2022-08-28T14:35:13.150Z,3.50
2022-08-28T14:37:39.768Z,3.72
2022-08-28T14:40:07.192Z,2.85
2022-08-28T14:42:33.751Z,3.22
2022-08-28T14:45:00.330Z,3.22
2022-08-28T14:47:27.120Z,3.25
2022-08-28T14:49:55.652Z,3.63
2022-08-28T14:52:22.850Z,3.30
2022-08-28T14:54:49.385Z,3.65
2022-08-28T14:57:16.069Z,3.30
2022-08-28T14:59:43.555Z,3.53
2022-08-28T15:02:10.140Z,3.92
2022-08-28T15:04:37.946Z,3.50
2022-08-28T15:07:10.764Z,3.78
2022-08-28T15:09:40.217Z,3.25
2022-08-28T15:12:07.292Z,3.10
2022-08-28T15:14:35.555Z,3.05
2022-08-28T15:17:02.273Z,3.10
2022-08-28T15:19:30.053Z,3.00
2022-08-28T15:21:57.292Z,2.75
2022-08-28T15:24:28.433Z,2.72
2022-08-28T15:26:55.375Z,3.17
2022-08-28T15:29:21.949Z,2.67
2022-08-28T15:31:50.020Z,2.72
2022-08-28T15:34:19.808Z,2.75
2022-08-28T15:36:54.657Z,2.67
2022-08-28T15:39:44.570Z,2.60
2022-08-28T15:42:11.492Z,2.55
2022-08-28T15:44:38.390Z,2.95
2022-08-28T15:47:06.081Z,2.90
2022-08-28T15:49:36.140Z,3.22
2022-08-28T15:52:10.819Z,3.15
2022-08-28T15:54:37.506Z,3.10
2022-08-28T15:57:04.118Z,3.00
2022-08-28T15:59:48.813Z,2.85
2022-08-28T16:02:22.027Z,2.78
2022-08-28T16:04:49.250Z,2.30
2022-08-28T16:07:17.810Z,3.00
2022-08-28T16:09:44.918Z,2.85
2022-08-28T16:12:11.446Z,2.90
2022-08-28T16:14:38.120Z,2.67
2022-08-28T16:17:06.036Z,2.78
2022-08-28T16:19:39.194Z,2.47
2022-08-28T16:22:05.872Z,2.45
2022-08-28T16:24:32.413Z,2.50
2022-08-28T16:26:58.907Z,2.75
2022-08-28T16:29:26.325Z,3.10
2022-08-28T16:31:53.158Z,3.15
2022-08-28T16:34:20.308Z,3.17
2022-08-28T16:36:50.314Z,3.13
2022-08-28T16:39:17.019Z,3.00
2022-08-28T16:41:49.674Z,2.90
2022-08-28T16:44:26.105Z,2.75
2022-08-28T16:46:54.351Z,3.15
2022-08-28T16:49:21.094Z,2.65
2022-08-28T16:51:47.756Z,2.75
2022-08-28T16:54:15.393Z,2.50
2022-08-28T16:56:41.953Z,2.55
2022-08-28T16:59:10.164Z,2.70
2022-08-28T17:01:38.118Z,2.70
2022-08-28T17:04:07.743Z,2.90
2022-08-28T17:06:35.442Z,2.95
2022-08-28T17:09:02.016Z,2.70
2022-08-28T17:11:28.921Z,2.80
2022-08-28T17:13:55.867Z,2.85
2022-08-28T17:16:24.154Z,2.90
2022-08-28T17:18:52.225Z,2.83
2022-08-28T17:21:40.030Z,3.05
2022-08-28T17:24:07.572Z,2.80
2022-08-28T17:26:34.132Z,2.60
2022-08-28T17:29:00.664Z,3.00
2022-08-28T17:31:27.443Z,2.97
2022-08-28T17:33:54.334Z,2.63
2022-08-28T17:36:32.359Z,3.10
2022-08-28T17:39:04.557Z,3.20
2022-08-28T17:41:32.788Z,3.42
2022-08-28T17:44:00.146Z,3.20
2022-08-28T17:46:26.738Z,3.85
2022-08-28T17:48:55.645Z,3.10
2022-08-28T17:51:40.438Z,2.92
2022-08-28T17:54:10.853Z,3.03
2022-08-28T17:56:37.986Z,3.05
2022-08-28T17:59:05.185Z,3.28
2022-08-28T18:01:31.788Z,3.00
2022-08-28T18:03:58.563Z,3.08
2022-08-28T18:06:25.108Z,3.65
2022-08-28T18:08:51.942Z,3.08
2022-08-28T18:11:19.511Z,3.58
2022-08-28T18:13:46.490Z,3.00
2022-08-28T18:16:13.189Z,3.42
2022-08-28T18:18:40.097Z,3.20
2022-08-28T18:21:06.624Z,3.00
2022-08-28T18:23:33.157Z,3.22
2022-08-28T18:25:59.642Z,2.97
2022-08-28T18:28:26.634Z,3.78
2022-08-28T18:30:53.933Z,3.88
2022-08-28T18:33:23.341Z,3.35
2022-08-28T18:35:50.918Z,3.25
2022-08-28T18:38:18.325Z,3.40
2022-08-28T18:40:46.066Z,3.47
2022-08-28T18:43:13.731Z,2.85
2022-08-28T18:45:40.559Z,2.88
2022-08-28T18:48:10.326Z,3.17
2022-08-28T18:50:37.067Z,3.28
2022-08-28T18:53:03.928Z,3.47
2022-08-28T18:55:32.196Z,3.30
2022-08-28T18:58:00.506Z,3.08
2022-08-28T19:00:27.344Z,3.30
2022-08-28T19:02:54.808Z,3.55
2022-08-28T19:05:21.700Z,3.55
2022-08-28T19:07:49.130Z,3.63
2022-08-28T19:10:32.768Z,3.80
2022-08-28T19:13:01.072Z,3.60
2022-08-28T19:15:28.557Z,3.10
2022-08-28T19:17:55.295Z,3.17
2022-08-28T19:20:21.989Z,3.28
2022-08-28T19:22:48.973Z,3.63
2022-08-28T19:25:28.551Z,3.92
2022-08-28T19:27:58.757Z,3.42
2022-08-28T19:30:28.253Z,3.55
2022-08-28T19:32:55.198Z,3.28
2022-08-28T19:35:24.595Z,3.53
2022-08-28T19:37:52.550Z,3.10
2022-08-28T19:40:20.547Z,3.28
2022-08-28T19:42:47.767Z,3.80
2022-08-28T19:45:15.078Z,3.33
2022-08-28T19:47:41.751Z,3.70
2022-08-28T19:50:10.884Z,3.80
2022-08-28T19:52:37.517Z,3.50
2022-08-28T19:55:06.585Z,3.88
2022-08-28T19:57:34.233Z,3.35
2022-08-28T20:00:00.775Z,3.92
2022-08-28T20:02:28.491Z,3.60
2022-08-28T20:04:55.412Z,3.65
2022-08-28T20:07:22.297Z,3.47
2022-08-28T20:09:48.835Z,3.88
2022-08-28T20:12:15.345Z,3.80
2022-08-28T20:14:42.596Z,3.92
2022-08-28T20:17:09.316Z,3.58
2022-08-28T20:19:36.022Z,4.22
2022-08-28T20:22:03.772Z,3.65
2022-08-28T20:24:30.391Z,3.50
2022-08-28T20:26:56.989Z,3.63
2022-08-28T20:29:24.257Z,3.50
2022-08-28T20:31:51.388Z,3.97
2022-08-28T20:34:19.820Z,3.50
2022-08-28T20:36:46.617Z,4.22
2022-08-28T20:39:14.687Z,3.85
2022-08-28T20:41:42.925Z,3.85
2022-08-28T20:44:12.715Z,3.70
2022-08-28T20:46:42.032Z,3.70
2022-08-28T20:49:10.707Z,3.80
2022-08-28T20:51:53.346Z,3.75
2022-08-28T20:54:21.944Z,4.00
2022-08-28T20:56:50.946Z,4.22
2022-08-28T20:59:19.245Z,3.88
2022-08-28T21:01:46.195Z,3.83
2022-08-28T21:04:12.879Z,3.70
2022-08-28T21:06:39.486Z,4.07
2022-08-28T21:09:05.994Z,4.40
2022-08-28T21:11:32.544Z,3.60
2022-08-28T21:13:59.085Z,4.05
2022-08-28T21:16:25.759Z,4.85
2022-08-28T21:19:14.684Z,4.00
2022-08-28T21:21:39.879Z,4.00
2022-08-28T21:24:09.866Z,4.60
2022-08-28T21:26:37.550Z,4.32
2022-08-28T21:29:07.530Z,4.65
2022-08-28T21:31:34.616Z,4.40
2022-08-28T21:34:01.317Z,3.95
2022-08-28T21:36:28.434Z,3.88
2022-08-28T21:38:56.656Z,3.55
2022-08-28T21:41:23.292Z,4.20
2022-08-28T21:43:49.818Z,4.43
2022-08-28T21:46:16.526Z,4.47
2022-08-28T21:48:47.004Z,4.30
2022-08-28T21:51:15.235Z,3.65
2022-08-28T21:53:42.542Z,4.30
2022-08-28T21:56:09.638Z,3.72
2022-08-28T21:58:38.134Z,4.30
2022-08-28T22:01:05.409Z,3.78
2022-08-28T22:03:33.392Z,4.10
2022-08-28T22:06:00.024Z,4.47
2022-08-28T22:08:28.603Z,3.80
2022-08-28T22:10:56.355Z,3.40
2022-08-28T22:13:22.917Z,4.65
2022-08-28T22:15:49.526Z,3.83
2022-08-28T22:18:16.561Z,4.18
2022-08-28T22:21:04.431Z,4.10
2022-08-28T22:23:34.603Z,4.60
2022-08-28T22:26:13.509Z,4.40
2022-08-28T22:28:40.170Z,4.57
2022-08-28T22:31:07.116Z,4.07
2022-08-28T22:33:34.113Z,4.45
2022-08-28T22:36:00.625Z,5.47
2022-08-28T22:38:27.216Z,3.92
2022-08-28T22:40:53.889Z,4.07
2022-08-28T22:43:20.962Z,4.28
2022-08-28T22:45:48.521Z,4.30
2022-08-28T22:48:17.267Z,4.40
2022-08-28T22:50:45.581Z,4.00
2022-08-28T22:53:12.337Z,4.25
2022-08-28T22:55:43.194Z,4.15
2022-08-28T22:58:10.853Z,4.70
2022-08-28T23:00:40.064Z,3.90
2022-08-28T23:03:06.827Z,4.07
2022-08-28T23:05:33.920Z,4.43
2022-08-28T23:08:00.450Z,4.07
2022-08-28T23:10:42.380Z,4.40
2022-08-28T23:13:15.388Z,4.15
2022-08-28T23:15:43.494Z,4.28
2022-08-28T23:18:11.095Z,3.85
2022-08-28T23:20:39.338Z,4.15
2022-08-28T23:23:06.582Z,4.30
2022-08-28T23:25:33.658Z,4.15
2022-08-28T23:28:05.863Z,4.47
2022-08-28T23:30:33.398Z,4.68
2022-08-28T23:33:00.119Z,3.88
2022-08-28T23:35:26.647Z,4.30
2022-08-28T23:37:53.188Z,4.57
2022-08-28T23:40:22.733Z,3.95
2022-08-28T23:42:49.588Z,4.32
2022-08-28T23:45:16.866Z,4.55
2022-08-28T23:47:44.497Z,4.10
2022-08-28T23:50:15.336Z,4.13
2022-08-28T23:52:43.168Z,4.10
2022-08-28T23:55:12.625Z,4.68
2022-08-28T23:57:39.635Z,4.00
